Cosco Nagoya — 3ESJ8 — position and weather

sailwx.info

Track history (hours):
 
Tides and Currents Weather Stations Pressure Air Temp Water Temp Dewpoint Dewpoint Depression Visibility Wind Speed Wind Dir Waves Ship Positions

Cosco Nagoya

Last reported at 2017-Feb-19 18:22 UTC. Time now 2017-Feb-20 22:28 UTC.
Position N 31°03' E 122°45'.

Length 260 m; draft 9.5 m.

Type: Cargo ship. MMSI: 370320000.

Date/timePositionNaut miles runAvg speedWind from/ knotsBaromVisibWave heightAir tempDewpointWater temp
2017-Feb-19 18:22N 31°03' E 122°45'51811.0
2017-Feb-17 19:21N 22°48' E 119°55'1214.7
2017-Feb-17 18:33N 22°36' E 119°53'1816.3
2017-Feb-17 17:29N 22°22' E 119°42'1515.8
2017-Feb-17 16:30N 22°08' E 119°34'  
2017-Feb-13 11:30N 01°15' E 104°09'1415.2
2017-Feb-13 10:33N 01°12' E 103°55'8 8.3
2017-Feb-13 09:33N 01°15' E 103°47'1 1.0
2017-Feb-13 08:34N 01°16' E 103°47'0 0.0
2017-Feb-13 07:28N 01°16' E 103°47'0 0.0
2017-Feb-13 06:31N 01°16' E 103°47'0 0.0
2017-Feb-13 05:25N 01°16' E 103°47'0 0.0
2017-Feb-13 04:31N 01°16' E 103°47'0 0.0
2017-Feb-13 03:31N 01°16' E 103°47'0 0.0
2017-Feb-13 02:31N 01°16' E 103°47'0 0.0
2017-Feb-13 01:31N 01°16' E 103°47'0 0.0
2017-Feb-13 00:31N 01°16' E 103°47'0 0.0
2017-Feb-12 23:31N 01°16' E 103°47'0 0.0
2017-Feb-12 22:31N 01°16' E 103°47'0 0.0
2017-Feb-12 21:31N 01°16' E 103°47'0 0.0
2017-Feb-12 20:31N 01°16' E 103°47'0 0.4
2017-Feb-12 19:33N 01°15' E 103°46'6 6.2
2017-Feb-12 18:33N 01°13' E 103°41'7 7.4
2017-Feb-12 17:33N 01°10' E 103°34'7 7.0
2017-Feb-12 16:33N 01°10' E 103°27'1312.1
2017-Feb-12 15:31N 01°18' E 103°17'3113.8
2017-Feb-12 13:15N 01°35' E 102°51'913.5
2017-Feb-12 12:33N 01°40' E 102°42'1413.5
2017-Feb-12 11:33N 01°46' E 102°30'1413.6
2017-Feb-12 10:33N 01°52' E 102°18'  
Track history (hours):
 
Tides and Currents Weather Stations Pressure Air Temp Water Temp Dewpoint Dewpoint Depression Visibility Wind Speed Wind Dir Waves Ship Positions

Cosco Nagoya

Last reported at 2017-Feb-19 18:22 UTC. Time now 2017-Feb-20 22:28 UTC.
Position N 31°03' E 122°45'.

Length 260 m; draft 9.5 m.

Type: Cargo ship. MMSI: 370320000.

Date/timePositionNaut miles runAvg speedWind from/ knotsBaromVisibWave heightAir tempDewpointWater temp
2017-Feb-19 18:22N 31°03' E 122°45'51811.0
2017-Feb-17 19:21N 22°48' E 119°55'1214.7
2017-Feb-17 18:33N 22°36' E 119°53'1816.3
2017-Feb-17 17:29N 22°22' E 119°42'1515.8
2017-Feb-17 16:30N 22°08' E 119°34'  
2017-Feb-13 11:30N 01°15' E 104°09'1415.2
2017-Feb-13 10:33N 01°12' E 103°55'8 8.3
2017-Feb-13 09:33N 01°15' E 103°47'1 1.0
2017-Feb-13 08:34N 01°16' E 103°47'0 0.0
2017-Feb-13 07:28N 01°16' E 103°47'0 0.0
2017-Feb-13 06:31N 01°16' E 103°47'0 0.0
2017-Feb-13 05:25N 01°16' E 103°47'0 0.0
2017-Feb-13 04:31N 01°16' E 103°47'0 0.0
2017-Feb-13 03:31N 01°16' E 103°47'0 0.0
2017-Feb-13 02:31N 01°16' E 103°47'0 0.0
2017-Feb-13 01:31N 01°16' E 103°47'0 0.0
2017-Feb-13 00:31N 01°16' E 103°47'0 0.0
2017-Feb-12 23:31N 01°16' E 103°47'0 0.0
2017-Feb-12 22:31N 01°16' E 103°47'0 0.0
2017-Feb-12 21:31N 01°16' E 103°47'0 0.0
2017-Feb-12 20:31N 01°16' E 103°47'0 0.4
2017-Feb-12 19:33N 01°15' E 103°46'6 6.2
2017-Feb-12 18:33N 01°13' E 103°41'7 7.4
2017-Feb-12 17:33N 01°10' E 103°34'7 7.0
2017-Feb-12 16:33N 01°10' E 103°27'1312.1
2017-Feb-12 15:31N 01°18' E 103°17'3113.8
2017-Feb-12 13:15N 01°35' E 102°51'913.5
2017-Feb-12 12:33N 01°40' E 102°42'1413.5
2017-Feb-12 11:33N 01°46' E 102°30'1413.6
2017-Feb-12 10:33N 01°52' E 102°18'  

Dump ship's entire track history